sensor_id;sensor_type;location;lat;lon;timestamp;temperature;humidity
44833;DHT22;30569;51.252;9.830;2024-03-22T00:00:29;7.90;99.90
44833;DHT22;30569;51.252;9.830;2024-03-22T00:02:55;7.90;99.90
44833;DHT22;30569;51.252;9.830;2024-03-22T00:05:20;7.80;99.90
44833;DHT22;30569;51.252;9.830;2024-03-22T00:07:47;7.90;99.90
44833;DHT22;30569;51.252;9.830;2024-03-22T00:10:13;7.90;99.90
44833;DHT22;30569;51.252;9.830;2024-03-22T00:12:39;7.90;99.90
44833;DHT22;30569;51.252;9.830;2024-03-22T00:15:05;7.70;99.90
44833;DHT22;30569;51.252;9.830;2024-03-22T00:19:58;7.80;99.90
44833;DHT22;30569;51.252;9.830;2024-03-22T00:22:24;7.80;99.90
44833;DHT22;30569;51.252;9.830;2024-03-22T00:24:49;7.30;99.90
44833;DHT22;30569;51.252;9.830;2024-03-22T00:27:15;7.30;99.90
44833;DHT22;30569;51.252;9.830;2024-03-22T00:29:40;7.30;99.90
44833;DHT22;30569;51.252;9.830;2024-03-22T00:32:06;7.20;99.90
44833;DHT22;30569;51.252;9.830;2024-03-22T00:34:33;7.40;99.90
44833;DHT22;30569;51.252;9.830;2024-03-22T00:36:59;7.30;99.90
44833;DHT22;30569;51.252;9.830;2024-03-22T00:39:25;6.90;99.90
44833;DHT22;30569;51.252;9.830;2024-03-22T00:41:50;6.80;99.90
44833;DHT22;30569;51.252;9.830;2024-03-22T00:44:16;7.40;99.90
44833;DHT22;30569;51.252;9.830;2024-03-22T00:46:41;7.40;99.90
44833;DHT22;30569;51.252;9.830;2024-03-22T00:49:07;7.70;99.90
44833;DHT22;30569;51.252;9.830;2024-03-22T00:51:33;7.80;99.90
44833;DHT22;30569;51.252;9.830;2024-03-22T00:53:58;7.60;99.90
44833;DHT22;30569;51.252;9.830;2024-03-22T00:56:24;7.70;99.90
44833;DHT22;30569;51.252;9.830;2024-03-22T00:58:49;7.70;99.90
44833;DHT22;30569;51.252;9.830;2024-03-22T01:01:15;7.90;99.90
44833;DHT22;30569;51.252;9.830;2024-03-22T01:03:40;8.00;99.90
44833;DHT22;30569;51.252;9.830;2024-03-22T01:06:06;8.00;99.90
44833;DHT22;30569;51.252;9.830;2024-03-22T01:08:32;8.00;99.90
44833;DHT22;30569;51.252;9.830;2024-03-22T01:10:58;8.00;99.90
44833;DHT22;30569;51.252;9.830;2024-03-22T01:13:24;8.20;99.90
44833;DHT22;30569;51.252;9.830;2024-03-22T01:15:49;7.90;99.90
44833;DHT22;30569;51.252;9.830;2024-03-22T01:18:15;7.70;99.90
44833;DHT22;30569;51.252;9.830;2024-03-22T01:20:40;7.50;99.90
44833;DHT22;30569;51.252;9.830;2024-03-22T01:23:07;7.20;99.90
44833;DHT22;30569;51.252;9.830;2024-03-22T01:25:33;7.20;99.90
44833;DHT22;30569;51.252;9.830;2024-03-22T01:27:58;7.20;99.90
44833;DHT22;30569;51.252;9.830;2024-03-22T01:30:24;7.10;99.90
44833;DHT22;30569;51.252;9.830;2024-03-22T01:32:54;7.00;99.90
44833;DHT22;30569;51.252;9.830;2024-03-22T01:35:20;7.10;99.90
44833;DHT22;30569;51.252;9.830;2024-03-22T01:37:45;6.80;99.90
44833;DHT22;30569;51.252;9.830;2024-03-22T01:40:12;6.70;99.90
44833;DHT22;30569;51.252;9.830;2024-03-22T01:42:38;6.50;99.90
44833;DHT22;30569;51.252;9.830;2024-03-22T01:45:03;6.50;99.90
44833;DHT22;30569;51.252;9.830;2024-03-22T01:47:29;6.60;99.90
44833;DHT22;30569;51.252;9.830;2024-03-22T01:49:55;6.40;99.90
44833;DHT22;30569;51.252;9.830;2024-03-22T01:52:21;6.00;99.90
44833;DHT22;30569;51.252;9.830;2024-03-22T01:54:47;6.20;99.90
44833;DHT22;30569;51.252;9.830;2024-03-22T01:57:12;6.30;99.90
44833;DHT22;30569;51.252;9.830;2024-03-22T01:59:38;6.40;99.90
44833;DHT22;30569;51.252;9.830;2024-03-22T02:02:04;6.30;99.90
44833;DHT22;30569;51.252;9.830;2024-03-22T02:04:30;5.90;99.90
44833;DHT22;30569;51.252;9.830;2024-03-22T02:06:55;5.90;99.90
44833;DHT22;30569;51.252;9.830;2024-03-22T02:09:21;5.80;99.90
44833;DHT22;30569;51.252;9.830;2024-03-22T02:11:47;6.10;99.90
44833;DHT22;30569;51.252;9.830;2024-03-22T02:14:13;6.40;99.90
44833;DHT22;30569;51.252;9.830;2024-03-22T02:16:42;6.40;99.90
44833;DHT22;30569;51.252;9.830;2024-03-22T02:19:08;6.50;99.90
44833;DHT22;30569;51.252;9.830;2024-03-22T02:24:00;6.60;99.90
44833;DHT22;30569;51.252;9.830;2024-03-22T02:26:26;6.40;99.90
44833;DHT22;30569;51.252;9.830;2024-03-22T02:28:51;6.40;99.90
44833;DHT22;30569;51.252;9.830;2024-03-22T02:31:17;6.40;99.90
44833;DHT22;30569;51.252;9.830;2024-03-22T02:36:09;6.40;99.90
44833;DHT22;30569;51.252;9.830;2024-03-22T02:38:34;6.20;99.90
44833;DHT22;30569;51.252;9.830;2024-03-22T02:41:00;6.20;99.90
44833;DHT22;30569;51.252;9.830;2024-03-22T02:43:26;6.40;99.90
44833;DHT22;30569;51.252;9.830;2024-03-22T02:46:10;6.40;99.90
44833;DHT22;30569;51.252;9.830;2024-03-22T02:48:38;6.50;99.90
44833;DHT22;30569;51.252;9.830;2024-03-22T02:51:04;6.50;99.90
44833;DHT22;30569;51.252;9.830;2024-03-22T02:53:30;6.60;99.90
44833;DHT22;30569;51.252;9.830;2024-03-22T02:55:55;6.60;99.90
44833;DHT22;30569;51.252;9.830;2024-03-22T02:58:21;6.70;99.90
44833;DHT22;30569;51.252;9.830;2024-03-22T03:00:47;6.80;99.90
44833;DHT22;30569;51.252;9.830;2024-03-22T03:03:13;6.90;99.90
44833;DHT22;30569;51.252;9.830;2024-03-22T03:05:38;7.00;99.90
44833;DHT22;30569;51.252;9.830;2024-03-22T03:08:06;6.90;99.90
44833;DHT22;30569;51.252;9.830;2024-03-22T03:10:32;6.80;99.90
44833;DHT22;30569;51.252;9.830;2024-03-22T03:12:58;6.60;99.90
44833;DHT22;30569;51.252;9.830;2024-03-22T03:15:23;6.60;99.90
44833;DHT22;30569;51.252;9.830;2024-03-22T03:17:49;6.60;99.90
44833;DHT22;30569;51.252;9.830;2024-03-22T03:20:14;6.50;99.90
44833;DHT22;30569;51.252;9.830;2024-03-22T03:22:40;6.60;99.90
44833;DHT22;30569;51.252;9.830;2024-03-22T03:25:07;6.80;99.90
44833;DHT22;30569;51.252;9.830;2024-03-22T03:27:32;6.90;99.90
44833;DHT22;30569;51.252;9.830;2024-03-22T03:29:58;7.00;99.90
44833;DHT22;30569;51.252;9.830;2024-03-22T03:32:24;7.10;99.90
44833;DHT22;30569;51.252;9.830;2024-03-22T03:34:50;7.10;99.90
44833;DHT22;30569;51.252;9.830;2024-03-22T03:37:16;7.10;99.90
44833;DHT22;30569;51.252;9.830;2024-03-22T03:42:07;7.00;99.90
44833;DHT22;30569;51.252;9.830;2024-03-22T03:44:33;7.00;99.90
44833;DHT22;30569;51.252;9.830;2024-03-22T03:47:01;6.90;99.90
44833;DHT22;30569;51.252;9.830;2024-03-22T03:49:27;7.10;99.90
44833;DHT22;30569;51.252;9.830;2024-03-22T03:51:52;7.30;99.90
44833;DHT22;30569;51.252;9.830;2024-03-22T03:54:18;7.70;99.90
44833;DHT22;30569;51.252;9.830;2024-03-22T03:56:43;7.70;99.90
44833;DHT22;30569;51.252;9.830;2024-03-22T03:59:09;7.90;99.90
44833;DHT22;30569;51.252;9.830;2024-03-22T04:01:35;8.00;99.90
44833;DHT22;30569;51.252;9.830;2024-03-22T04:04:00;7.30;99.90
44833;DHT22;30569;51.252;9.830;2024-03-22T04:06:26;7.30;99.90
44833;DHT22;30569;51.252;9.830;2024-03-22T04:08:51;7.10;99.90
44833;DHT22;30569;51.252;9.830;2024-03-22T04:11:17;7.00;99.90
44833;DHT22;30569;51.252;9.830;2024-03-22T04:13:42;7.10;99.90
44833;DHT22;30569;51.252;9.830;2024-03-22T04:16:08;7.00;99.90
44833;DHT22;30569;51.252;9.830;2024-03-22T04:18:34;7.10;99.90
44833;DHT22;30569;51.252;9.830;2024-03-22T04:20:59;7.30;99.90
44833;DHT22;30569;51.252;9.830;2024-03-22T04:23:25;7.30;99.90
44833;DHT22;30569;51.252;9.830;2024-03-22T04:25:59;7.20;99.90
44833;DHT22;30569;51.252;9.830;2024-03-22T04:28:26;7.20;99.90
44833;DHT22;30569;51.252;9.830;2024-03-22T04:30:56;7.30;99.90
44833;DHT22;30569;51.252;9.830;2024-03-22T04:33:22;7.30;99.90
44833;DHT22;30569;51.252;9.830;2024-03-22T04:35:47;7.30;99.90
44833;DHT22;30569;51.252;9.830;2024-03-22T04:38:13;7.50;99.90
44833;DHT22;30569;51.252;9.830;2024-03-22T04:40:39;7.90;99.90
44833;DHT22;30569;51.252;9.830;2024-03-22T04:43:05;8.30;99.90
44833;DHT22;30569;51.252;9.830;2024-03-22T04:45:31;8.70;99.90
44833;DHT22;30569;51.252;9.830;2024-03-22T04:47:56;8.90;99.90
44833;DHT22;30569;51.252;9.830;2024-03-22T04:50:22;8.90;99.90
44833;DHT22;30569;51.252;9.830;2024-03-22T04:52:47;9.10;99.90
44833;DHT22;30569;51.252;9.830;2024-03-22T04:55:13;8.20;99.90
44833;DHT22;30569;51.252;9.830;2024-03-22T04:57:39;8.00;99.90
44833;DHT22;30569;51.252;9.830;2024-03-22T05:00:04;7.80;99.90
44833;DHT22;30569;51.252;9.830;2024-03-22T05:02:33;7.70;99.90
44833;DHT22;30569;51.252;9.830;2024-03-22T05:04:58;7.70;99.90
44833;DHT22;30569;51.252;9.830;2024-03-22T05:07:24;7.60;99.90
44833;DHT22;30569;51.252;9.830;2024-03-22T05:09:49;7.60;99.90
44833;DHT22;30569;51.252;9.830;2024-03-22T05:12:15;7.70;99.90
44833;DHT22;30569;51.252;9.830;2024-03-22T05:14:40;7.80;99.90
44833;DHT22;30569;51.252;9.830;2024-03-22T05:17:06;7.80;99.90
44833;DHT22;30569;51.252;9.830;2024-03-22T05:19:31;8.00;99.90
44833;DHT22;30569;51.252;9.830;2024-03-22T05:21:57;8.50;99.90
44833;DHT22;30569;51.252;9.830;2024-03-22T05:24:22;8.40;99.90
44833;DHT22;30569;51.252;9.830;2024-03-22T05:26:48;8.50;99.90
44833;DHT22;30569;51.252;9.830;2024-03-22T05:29:13;8.40;99.90
44833;DHT22;30569;51.252;9.830;2024-03-22T05:31:47;8.20;99.90
44833;DHT22;30569;51.252;9.830;2024-03-22T05:34:14;7.80;99.90
44833;DHT22;30569;51.252;9.830;2024-03-22T05:36:40;7.60;99.90
44833;DHT22;30569;51.252;9.830;2024-03-22T05:39:06;7.80;99.90
44833;DHT22;30569;51.252;9.830;2024-03-22T05:41:31;7.70;99.90
44833;DHT22;30569;51.252;9.830;2024-03-22T05:43:57;7.80;99.90
44833;DHT22;30569;51.252;9.830;2024-03-22T05:48:48;7.80;99.90
44833;DHT22;30569;51.252;9.830;2024-03-22T05:51:16;8.40;99.90
44833;DHT22;30569;51.252;9.830;2024-03-22T05:53:41;8.00;99.90
44833;DHT22;30569;51.252;9.830;2024-03-22T05:56:07;8.00;99.90
44833;DHT22;30569;51.252;9.830;2024-03-22T05:58:34;8.50;99.90
44833;DHT22;30569;51.252;9.830;2024-03-22T06:00:59;8.20;99.90
44833;DHT22;30569;51.252;9.830;2024-03-22T06:03:25;8.20;99.90
44833;DHT22;30569;51.252;9.830;2024-03-22T06:05:51;8.10;99.90
44833;DHT22;30569;51.252;9.830;2024-03-22T06:08:20;8.10;99.90
44833;DHT22;30569;51.252;9.830;2024-03-22T06:10:46;8.20;99.90
44833;DHT22;30569;51.252;9.830;2024-03-22T06:13:12;8.40;99.90
44833;DHT22;30569;51.252;9.830;2024-03-22T06:15:37;8.20;99.90
44833;DHT22;30569;51.252;9.830;2024-03-22T06:18:03;9.20;99.90
44833;DHT22;30569;51.252;9.830;2024-03-22T06:20:28;8.40;99.90
44833;DHT22;30569;51.252;9.830;2024-03-22T06:22:54;8.50;99.90
44833;DHT22;30569;51.252;9.830;2024-03-22T06:25:19;8.60;99.90
44833;DHT22;30569;51.252;9.830;2024-03-22T06:27:45;8.60;99.90
44833;DHT22;30569;51.252;9.830;2024-03-22T06:30:11;8.60;99.90
44833;DHT22;30569;51.252;9.830;2024-03-22T06:32:37;8.60;99.90
44833;DHT22;30569;51.252;9.830;2024-03-22T06:35:02;8.60;99.90
44833;DHT22;30569;51.252;9.830;2024-03-22T06:37:28;8.60;99.90
44833;DHT22;30569;51.252;9.830;2024-03-22T06:39:54;8.70;99.90
44833;DHT22;30569;51.252;9.830;2024-03-22T06:42:19;8.80;99.90
44833;DHT22;30569;51.252;9.830;2024-03-22T06:44:45;9.00;99.90
44833;DHT22;30569;51.252;9.830;2024-03-22T06:47:10;9.20;99.90
44833;DHT22;30569;51.252;9.830;2024-03-22T06:49:36;9.10;99.90
44833;DHT22;30569;51.252;9.830;2024-03-22T06:52:02;9.10;99.90
44833;DHT22;30569;51.252;9.830;2024-03-22T06:54:27;9.10;99.90
44833;DHT22;30569;51.252;9.830;2024-03-22T06:56:53;9.20;99.90
44833;DHT22;30569;51.252;9.830;2024-03-22T06:59:18;9.70;99.90
44833;DHT22;30569;51.252;9.830;2024-03-22T07:01:44;10.10;99.90
44833;DHT22;30569;51.252;9.830;2024-03-22T07:04:09;9.80;99.90
44833;DHT22;30569;51.252;9.830;2024-03-22T07:06:35;9.70;99.90
44833;DHT22;30569;51.252;9.830;2024-03-22T07:09:01;9.40;99.90
44833;DHT22;30569;51.252;9.830;2024-03-22T07:11:26;9.10;99.90
44833;DHT22;30569;51.252;9.830;2024-03-22T07:13:52;9.10;99.90
44833;DHT22;30569;51.252;9.830;2024-03-22T07:16:19;9.00;99.90
44833;DHT22;30569;51.252;9.830;2024-03-22T07:18:44;9.10;99.90
44833;DHT22;30569;51.252;9.830;2024-03-22T07:21:10;9.20;99.90
44833;DHT22;30569;51.252;9.830;2024-03-22T07:23:36;9.30;99.90
44833;DHT22;30569;51.252;9.830;2024-03-22T07:26:01;9.50;99.90
44833;DHT22;30569;51.252;9.830;2024-03-22T07:28:27;9.80;99.90
44833;DHT22;30569;51.252;9.830;2024-03-22T07:30:52;9.50;99.90
44833;DHT22;30569;51.252;9.830;2024-03-22T07:33:20;9.50;99.90
44833;DHT22;30569;51.252;9.830;2024-03-22T07:35:46;9.40;99.90
44833;DHT22;30569;51.252;9.830;2024-03-22T07:38:11;9.50;99.90
44833;DHT22;30569;51.252;9.830;2024-03-22T07:40:37;9.50;99.90
44833;DHT22;30569;51.252;9.830;2024-03-22T07:43:02;9.60;99.90
44833;DHT22;30569;51.252;9.830;2024-03-22T07:45:32;9.50;99.90
44833;DHT22;30569;51.252;9.830;2024-03-22T07:47:58;9.60;99.90
44833;DHT22;30569;51.252;9.830;2024-03-22T07:50:23;9.70;99.90
44833;DHT22;30569;51.252;9.830;2024-03-22T07:52:49;9.70;99.90
44833;DHT22;30569;51.252;9.830;2024-03-22T07:55:15;9.70;99.90
44833;DHT22;30569;51.252;9.830;2024-03-22T07:57:41;9.80;99.90
44833;DHT22;30569;51.252;9.830;2024-03-22T08:00:07;9.80;99.90
44833;DHT22;30569;51.252;9.830;2024-03-22T08:02:33;9.80;99.90
44833;DHT22;30569;51.252;9.830;2024-03-22T08:04:58;10.10;99.90
44833;DHT22;30569;51.252;9.830;2024-03-22T08:07:24;10.10;99.90
44833;DHT22;30569;51.252;9.830;2024-03-22T08:09:50;10.10;99.90
44833;DHT22;30569;51.252;9.830;2024-03-22T08:12:15;10.30;99.90
44833;DHT22;30569;51.252;9.830;2024-03-22T08:14:41;10.60;99.90
44833;DHT22;30569;51.252;9.830;2024-03-22T08:17:07;10.70;99.90
44833;DHT22;30569;51.252;9.830;2024-03-22T08:19:34;10.90;99.90
44833;DHT22;30569;51.252;9.830;2024-03-22T08:22:00;11.00;99.90
44833;DHT22;30569;51.252;9.830;2024-03-22T08:24:26;11.00;99.90
44833;DHT22;30569;51.252;9.830;2024-03-22T08:26:51;11.00;99.90
44833;DHT22;30569;51.252;9.830;2024-03-22T08:29:17;11.00;99.90
44833;DHT22;30569;51.252;9.830;2024-03-22T08:31:42;11.20;99.90
44833;DHT22;30569;51.252;9.830;2024-03-22T08:34:08;11.00;99.90
44833;DHT22;30569;51.252;9.830;2024-03-22T08:36:34;10.90;99.90
44833;DHT22;30569;51.252;9.830;2024-03-22T08:39:00;11.00;99.90
44833;DHT22;30569;51.252;9.830;2024-03-22T08:41:26;11.30;99.90
44833;DHT22;30569;51.252;9.830;2024-03-22T08:43:51;11.40;99.90
44833;DHT22;30569;51.252;9.830;2024-03-22T08:46:17;11.40;99.90
44833;DHT22;30569;51.252;9.830;2024-03-22T08:48:42;11.20;99.90
44833;DHT22;30569;51.252;9.830;2024-03-22T08:51:08;11.10;99.90
44833;DHT22;30569;51.252;9.830;2024-03-22T08:53:33;11.20;99.90
44833;DHT22;30569;51.252;9.830;2024-03-22T08:55:59;11.50;99.90
44833;DHT22;30569;51.252;9.830;2024-03-22T08:58:24;11.90;99.90
44833;DHT22;30569;51.252;9.830;2024-03-22T09:00:50;12.30;99.90
44833;DHT22;30569;51.252;9.830;2024-03-22T09:03:15;12.30;99.90
44833;DHT22;30569;51.252;9.830;2024-03-22T09:05:41;12.50;99.90
44833;DHT22;30569;51.252;9.830;2024-03-22T09:08:07;12.50;99.90
44833;DHT22;30569;51.252;9.830;2024-03-22T09:10:32;12.40;99.90
44833;DHT22;30569;51.252;9.830;2024-03-22T09:12:59;12.80;99.90
44833;DHT22;30569;51.252;9.830;2024-03-22T09:15:24;13.40;99.90
44833;DHT22;30569;51.252;9.830;2024-03-22T09:17:51;13.50;99.90
44833;DHT22;30569;51.252;9.830;2024-03-22T09:20:17;13.80;99.90
44833;DHT22;30569;51.252;9.830;2024-03-22T09:22:42;13.10;99.90
44833;DHT22;30569;51.252;9.830;2024-03-22T09:25:08;13.30;99.90
44833;DHT22;30569;51.252;9.830;2024-03-22T09:27:34;13.30;99.90
44833;DHT22;30569;51.252;9.830;2024-03-22T09:29:59;12.50;99.90
44833;DHT22;30569;51.252;9.830;2024-03-22T09:32:26;12.40;99.90
44833;DHT22;30569;51.252;9.830;2024-03-22T09:34:52;13.20;99.90
44833;DHT22;30569;51.252;9.830;2024-03-22T09:37:18;13.40;99.90
44833;DHT22;30569;51.252;9.830;2024-03-22T09:39:44;12.70;99.90
44833;DHT22;30569;51.252;9.830;2024-03-22T09:42:15;12.20;99.90
44833;DHT22;30569;51.252;9.830;2024-03-22T09:44:46;11.90;99.90
44833;DHT22;30569;51.252;9.830;2024-03-22T09:47:13;11.90;99.90
44833;DHT22;30569;51.252;9.830;2024-03-22T09:49:40;11.90;99.90
44833;DHT22;30569;51.252;9.830;2024-03-22T09:52:06;11.90;99.90
44833;DHT22;30569;51.252;9.830;2024-03-22T09:54:33;12.00;99.90
44833;DHT22;30569;51.252;9.830;2024-03-22T09:56:59;12.10;99.90
44833;DHT22;30569;51.252;9.830;2024-03-22T09:59:25;12.40;99.90
44833;DHT22;30569;51.252;9.830;2024-03-22T10:01:52;12.20;99.90
44833;DHT22;30569;51.252;9.830;2024-03-22T10:04:18;12.10;99.90
44833;DHT22;30569;51.252;9.830;2024-03-22T10:06:46;12.10;99.90
44833;DHT22;30569;51.252;9.830;2024-03-22T10:09:12;12.40;99.90
44833;DHT22;30569;51.252;9.830;2024-03-22T10:11:38;12.30;99.90
44833;DHT22;30569;51.252;9.830;2024-03-22T10:14:03;12.70;99.90
44833;DHT22;30569;51.252;9.830;2024-03-22T10:16:34;12.70;99.90
44833;DHT22;30569;51.252;9.830;2024-03-22T10:19:00;12.90;99.90
44833;DHT22;30569;51.252;9.830;2024-03-22T10:21:25;13.00;99.90
44833;DHT22;30569;51.252;9.830;2024-03-22T10:23:53;13.30;99.90
44833;DHT22;30569;51.252;9.830;2024-03-22T10:26:19;13.30;99.90
44833;DHT22;30569;51.252;9.830;2024-03-22T10:28:45;13.20;99.90
44833;DHT22;30569;51.252;9.830;2024-03-22T10:31:12;13.20;99.90
44833;DHT22;30569;51.252;9.830;2024-03-22T10:33:38;13.00;99.90
44833;DHT22;30569;51.252;9.830;2024-03-22T10:36:06;12.60;99.90
44833;DHT22;30569;51.252;9.830;2024-03-22T10:38:32;12.50;99.90
44833;DHT22;30569;51.252;9.830;2024-03-22T10:41:00;12.30;99.90
44833;DHT22;30569;51.252;9.830;2024-03-22T10:43:26;12.10;99.90
44833;DHT22;30569;51.252;9.830;2024-03-22T10:45:55;12.20;99.90
44833;DHT22;30569;51.252;9.830;2024-03-22T10:48:21;12.20;99.90
44833;DHT22;30569;51.252;9.830;2024-03-22T10:50:49;12.30;99.90
44833;DHT22;30569;51.252;9.830;2024-03-22T10:53:19;12.60;99.90
44833;DHT22;30569;51.252;9.830;2024-03-22T10:55:49;12.70;99.90
44833;DHT22;30569;51.252;9.830;2024-03-22T10:58:20;12.90;99.90
44833;DHT22;30569;51.252;9.830;2024-03-22T11:00:46;13.10;99.90
44833;DHT22;30569;51.252;9.830;2024-03-22T11:03:13;13.10;99.90
44833;DHT22;30569;51.252;9.830;2024-03-22T11:05:45;13.10;99.90
44833;DHT22;30569;51.252;9.830;2024-03-22T11:08:11;13.10;99.90
44833;DHT22;30569;51.252;9.830;2024-03-22T11:13:04;13.70;99.90
44833;DHT22;30569;51.252;9.830;2024-03-22T11:15:30;13.80;99.90
44833;DHT22;30569;51.252;9.830;2024-03-22T11:17:59;13.80;99.90
44833;DHT22;30569;51.252;9.830;2024-03-22T11:20:25;13.90;99.90
44833;DHT22;30569;51.252;9.830;2024-03-22T11:22:53;13.80;99.90
44833;DHT22;30569;51.252;9.830;2024-03-22T11:25:19;13.60;99.90
44833;DHT22;30569;51.252;9.830;2024-03-22T11:27:48;13.60;99.90
44833;DHT22;30569;51.252;9.830;2024-03-22T11:30:15;13.90;99.90
44833;DHT22;30569;51.252;9.830;2024-03-22T11:32:41;14.00;99.90
44833;DHT22;30569;51.252;9.830;2024-03-22T11:35:11;14.50;99.90
44833;DHT22;30569;51.252;9.830;2024-03-22T11:37:41;14.90;99.90
44833;DHT22;30569;51.252;9.830;2024-03-22T11:40:10;15.00;99.90
44833;DHT22;30569;51.252;9.830;2024-03-22T11:42:46;15.30;99.90
44833;DHT22;30569;51.252;9.830;2024-03-22T11:45:15;14.90;99.90
44833;DHT22;30569;51.252;9.830;2024-03-22T11:47:41;14.60;99.90
44833;DHT22;30569;51.252;9.830;2024-03-22T11:50:07;14.60;99.90
44833;DHT22;30569;51.252;9.830;2024-03-22T11:52:35;15.00;99.90
44833;DHT22;30569;51.252;9.830;2024-03-22T11:55:00;15.60;99.90
44833;DHT22;30569;51.252;9.830;2024-03-22T11:57:27;15.50;99.90
44833;DHT22;30569;51.252;9.830;2024-03-22T11:59:59;15.50;99.50
44833;DHT22;30569;51.252;9.830;2024-03-22T12:02:25;15.50;99.90
44833;DHT22;30569;51.252;9.830;2024-03-22T12:04:51;15.30;99.40
44833;DHT22;30569;51.252;9.830;2024-03-22T12:07:18;15.00;99.90
44833;DHT22;30569;51.252;9.830;2024-03-22T12:09:44;15.40;99.90
44833;DHT22;30569;51.252;9.830;2024-03-22T12:12:12;14.60;99.90
44833;DHT22;30569;51.252;9.830;2024-03-22T12:14:38;14.50;99.90
44833;DHT22;30569;51.252;9.830;2024-03-22T12:17:05;14.50;99.90
44833;DHT22;30569;51.252;9.830;2024-03-22T12:19:31;14.50;99.90
44833;DHT22;30569;51.252;9.830;2024-03-22T12:21:57;14.80;99.90
44833;DHT22;30569;51.252;9.830;2024-03-22T12:24:23;15.50;99.90
44833;DHT22;30569;51.252;9.830;2024-03-22T12:26:49;15.60;99.90
44833;DHT22;30569;51.252;9.830;2024-03-22T12:29:18;16.10;99.90
44833;DHT22;30569;51.252;9.830;2024-03-22T12:31:44;16.10;98.20
44833;DHT22;30569;51.252;9.830;2024-03-22T12:34:10;16.50;97.20
44833;DHT22;30569;51.252;9.830;2024-03-22T12:36:36;16.60;97.30
44833;DHT22;30569;51.252;9.830;2024-03-22T12:39:02;16.80;97.00
44833;DHT22;30569;51.252;9.830;2024-03-22T12:41:28;16.70;97.60
44833;DHT22;30569;51.252;9.830;2024-03-22T12:43:57;15.50;98.40
44833;DHT22;30569;51.252;9.830;2024-03-22T12:46:23;15.50;98.70
44833;DHT22;30569;51.252;9.830;2024-03-22T12:48:48;15.30;99.20
44833;DHT22;30569;51.252;9.830;2024-03-22T12:51:14;15.00;99.80
44833;DHT22;30569;51.252;9.830;2024-03-22T12:53:40;15.20;99.90
44833;DHT22;30569;51.252;9.830;2024-03-22T12:56:06;15.20;99.60
44833;DHT22;30569;51.252;9.830;2024-03-22T12:58:31;14.70;99.90
44833;DHT22;30569;51.252;9.830;2024-03-22T13:00:58;15.10;99.90
44833;DHT22;30569;51.252;9.830;2024-03-22T13:03:25;15.10;99.90
44833;DHT22;30569;51.252;9.830;2024-03-22T13:05:51;15.50;98.80
44833;DHT22;30569;51.252;9.830;2024-03-22T13:08:16;15.60;99.30
44833;DHT22;30569;51.252;9.830;2024-03-22T13:10:42;15.60;99.80
44833;DHT22;30569;51.252;9.830;2024-03-22T13:13:10;15.90;98.90
44833;DHT22;30569;51.252;9.830;2024-03-22T13:15:36;16.30;98.00
44833;DHT22;30569;51.252;9.830;2024-03-22T13:18:03;15.70;98.20
44833;DHT22;30569;51.252;9.830;2024-03-22T13:20:29;15.50;98.50
44833;DHT22;30569;51.252;9.830;2024-03-22T13:22:55;15.30;99.10
44833;DHT22;30569;51.252;9.830;2024-03-22T13:25:20;15.70;99.30
44833;DHT22;30569;51.252;9.830;2024-03-22T13:27:46;15.80;98.60
44833;DHT22;30569;51.252;9.830;2024-03-22T13:30:12;15.70;98.80
44833;DHT22;30569;51.252;9.830;2024-03-22T13:32:38;15.60;98.80
44833;DHT22;30569;51.252;9.830;2024-03-22T13:35:05;15.40;99.50
44833;DHT22;30569;51.252;9.830;2024-03-22T13:37:31;15.40;99.60
44833;DHT22;30569;51.252;9.830;2024-03-22T13:39:57;15.20;99.20
44833;DHT22;30569;51.252;9.830;2024-03-22T13:42:23;15.10;99.60
44833;DHT22;30569;51.252;9.830;2024-03-22T13:44:49;15.50;99.80
44833;DHT22;30569;51.252;9.830;2024-03-22T13:47:15;15.70;99.20
44833;DHT22;30569;51.252;9.830;2024-03-22T13:49:40;16.00;98.30
44833;DHT22;30569;51.252;9.830;2024-03-22T13:52:09;15.90;98.10
44833;DHT22;30569;51.252;9.830;2024-03-22T13:54:35;15.60;98.50
44833;DHT22;30569;51.252;9.830;2024-03-22T13:57:01;15.60;98.90
44833;DHT22;30569;51.252;9.830;2024-03-22T13:59:28;15.70;99.20
44833;DHT22;30569;51.252;9.830;2024-03-22T14:01:54;15.50;98.70
44833;DHT22;30569;51.252;9.830;2024-03-22T14:04:19;15.30;98.90
44833;DHT22;30569;51.252;9.830;2024-03-22T14:06:45;15.10;99.20
44833;DHT22;30569;51.252;9.830;2024-03-22T14:09:11;15.20;99.90
44833;DHT22;30569;51.252;9.830;2024-03-22T14:11:39;15.40;99.80
44833;DHT22;30569;51.252;9.830;2024-03-22T14:14:05;15.50;98.80
44833;DHT22;30569;51.252;9.830;2024-03-22T14:16:32;15.60;99.00
44833;DHT22;30569;51.252;9.830;2024-03-22T14:18:58;15.60;98.70
44833;DHT22;30569;51.252;9.830;2024-03-22T14:21:23;15.70;98.10
44833;DHT22;30569;51.252;9.830;2024-03-22T14:23:49;15.70;98.00
44833;DHT22;30569;51.252;9.830;2024-03-22T14:26:16;15.60;98.10
44833;DHT22;30569;51.252;9.830;2024-03-22T14:28:42;15.70;98.20
44833;DHT22;30569;51.252;9.830;2024-03-22T14:31:09;15.30;97.60
44833;DHT22;30569;51.252;9.830;2024-03-22T14:33:35;15.30;97.90
44833;DHT22;30569;51.252;9.830;2024-03-22T14:36:03;15.30;97.60
44833;DHT22;30569;51.252;9.830;2024-03-22T14:38:29;15.20;97.70
44833;DHT22;30569;51.252;9.830;2024-03-22T14:40:55;15.20;98.40
44833;DHT22;30569;51.252;9.830;2024-03-22T14:43:23;15.00;97.20
44833;DHT22;30569;51.252;9.830;2024-03-22T14:45:48;15.20;97.00
44833;DHT22;30569;51.252;9.830;2024-03-22T14:48:14;15.20;96.90
44833;DHT22;30569;51.252;9.830;2024-03-22T14:50:40;15.20;96.40
44833;DHT22;30569;51.252;9.830;2024-03-22T14:53:06;15.00;96.80
44833;DHT22;30569;51.252;9.830;2024-03-22T14:55:31;15.40;96.40
44833;DHT22;30569;51.252;9.830;2024-03-22T14:57:57;15.60;96.10
44833;DHT22;30569;51.252;9.830;2024-03-22T15:00:22;15.20;94.90
44833;DHT22;30569;51.252;9.830;2024-03-22T15:02:52;15.20;96.30
44833;DHT22;30569;51.252;9.830;2024-03-22T15:05:18;15.00;95.20
44833;DHT22;30569;51.252;9.830;2024-03-22T15:07:43;15.30;95.50
44833;DHT22;30569;51.252;9.830;2024-03-22T15:10:09;15.20;95.50
44833;DHT22;30569;51.252;9.830;2024-03-22T15:12:34;15.30;94.20
44833;DHT22;30569;51.252;9.830;2024-03-22T15:15:00;15.60;94.20
44833;DHT22;30569;51.252;9.830;2024-03-22T15:17:26;15.60;94.80
44833;DHT22;30569;51.252;9.830;2024-03-22T15:19:51;15.70;93.70
44833;DHT22;30569;51.252;9.830;2024-03-22T15:22:17;15.90;94.00
44833;DHT22;30569;51.252;9.830;2024-03-22T15:24:45;15.80;92.70
44833;DHT22;30569;51.252;9.830;2024-03-22T15:27:10;15.70;93.70
44833;DHT22;30569;51.252;9.830;2024-03-22T15:29:36;15.80;93.10
44833;DHT22;30569;51.252;9.830;2024-03-22T15:32:03;15.50;93.80
44833;DHT22;30569;51.252;9.830;2024-03-22T15:34:29;16.00;93.40
44833;DHT22;30569;51.252;9.830;2024-03-22T15:36:55;15.80;92.60
44833;DHT22;30569;51.252;9.830;2024-03-22T15:39:20;15.90;93.60
44833;DHT22;30569;51.252;9.830;2024-03-22T15:41:46;16.00;93.20
44833;DHT22;30569;51.252;9.830;2024-03-22T15:44:12;15.90;93.10